sensor_id;sensor_type;location;lat;lon;timestamp;P1;durP1;ratioP1;P2;durP2;ratioP2
30888;SDS011;51092;50.874;7.024;2022-12-16T00:00:11;110.32;;;41.92;;
30888;SDS011;51092;50.874;7.024;2022-12-16T00:01:15;99.75;;;44.20;;
30888;SDS011;51092;50.874;7.024;2022-12-16T00:02:18;83.47;;;43.22;;
30888;SDS011;51092;50.874;7.024;2022-12-16T00:03:20;120.68;;;47.22;;
30888;SDS011;51092;50.874;7.024;2022-12-16T00:04:22;132.38;;;47.00;;
30888;SDS011;51092;50.874;7.024;2022-12-16T00:05:25;90.25;;;44.70;;
30888;SDS011;51092;50.874;7.024;2022-12-16T00:06:28;80.03;;;42.20;;
30888;SDS011;51092;50.874;7.024;2022-12-16T00:07:32;149.55;;;49.28;;
30888;SDS011;51092;50.874;7.024;2022-12-16T00:08:35;292.25;;;55.20;;
30888;SDS011;51092;50.874;7.024;2022-12-16T00:09:39;562.65;;;70.60;;
30888;SDS011;51092;50.874;7.024;2022-12-16T00:10:42;491.90;;;66.63;;
30888;SDS011;51092;50.874;7.024;2022-12-16T00:11:54;458.33;;;63.40;;
30888;SDS011;51092;50.874;7.024;2022-12-16T00:12:56;492.13;;;63.63;;
30888;SDS011;51092;50.874;7.024;2022-12-16T00:13:58;304.83;;;53.97;;
30888;SDS011;51092;50.874;7.024;2022-12-16T00:15:00;85.38;;;42.95;;
30888;SDS011;51092;50.874;7.024;2022-12-16T00:16:03;78.20;;;40.85;;
30888;SDS011;51092;50.874;7.024;2022-12-16T00:17:05;87.82;;;41.88;;
30888;SDS011;51092;50.874;7.024;2022-12-16T00:18:08;168.57;;;49.58;;
30888;SDS011;51092;50.874;7.024;2022-12-16T00:19:09;79.75;;;41.28;;
30888;SDS011;51092;50.874;7.024;2022-12-16T00:20:12;77.75;;;37.03;;
30888;SDS011;51092;50.874;7.024;2022-12-16T00:21:13;138.07;;;47.13;;
30888;SDS011;51092;50.874;7.024;2022-12-16T00:22:17;77.88;;;40.70;;
30888;SDS011;51092;50.874;7.024;2022-12-16T00:23:18;94.53;;;40.20;;
30888;SDS011;51092;50.874;7.024;2022-12-16T00:24:20;74.03;;;39.55;;
30888;SDS011;51092;50.874;7.024;2022-12-16T00:25:22;86.38;;;41.30;;
30888;SDS011;51092;50.874;7.024;2022-12-16T00:26:26;103.28;;;42.55;;
30888;SDS011;51092;50.874;7.024;2022-12-16T00:27:29;87.35;;;41.88;;
30888;SDS011;51092;50.874;7.024;2022-12-16T00:28:31;93.20;;;40.83;;
30888;SDS011;51092;50.874;7.024;2022-12-16T00:29:33;71.97;;;37.13;;
30888;SDS011;51092;50.874;7.024;2022-12-16T00:30:36;76.88;;;39.35;;
30888;SDS011;51092;50.874;7.024;2022-12-16T00:31:37;169.93;;;45.42;;
30888;SDS011;51092;50.874;7.024;2022-12-16T00:32:40;166.82;;;40.53;;
30888;SDS011;51092;50.874;7.024;2022-12-16T00:33:41;82.25;;;36.95;;
30888;SDS011;51092;50.874;7.024;2022-12-16T00:34:45;69.40;;;36.17;;
30888;SDS011;51092;50.874;7.024;2022-12-16T00:35:47;73.47;;;37.15;;
30888;SDS011;51092;50.874;7.024;2022-12-16T00:36:49;83.88;;;40.22;;
30888;SDS011;51092;50.874;7.024;2022-12-16T00:37:51;84.47;;;39.75;;
30888;SDS011;51092;50.874;7.024;2022-12-16T00:38:54;107.82;;;40.03;;
30888;SDS011;51092;50.874;7.024;2022-12-16T00:39:55;69.72;;;37.47;;
30888;SDS011;51092;50.874;7.024;2022-12-16T00:40:58;74.40;;;38.03;;
30888;SDS011;51092;50.874;7.024;2022-12-16T00:42:01;78.13;;;36.22;;
30888;SDS011;51092;50.874;7.024;2022-12-16T00:43:03;79.25;;;36.20;;
30888;SDS011;51092;50.874;7.024;2022-12-16T00:44:05;82.63;;;38.35;;
30888;SDS011;51092;50.874;7.024;2022-12-16T00:45:08;96.28;;;39.05;;
30888;SDS011;51092;50.874;7.024;2022-12-16T00:46:10;79.50;;;35.35;;
30888;SDS011;51092;50.874;7.024;2022-12-16T00:47:12;70.20;;;34.28;;
30888;SDS011;51092;50.874;7.024;2022-12-16T00:48:14;92.07;;;37.50;;
30888;SDS011;51092;50.874;7.024;2022-12-16T00:49:16;83.13;;;36.45;;
30888;SDS011;51092;50.874;7.024;2022-12-16T00:50:18;86.65;;;35.63;;
30888;SDS011;51092;50.874;7.024;2022-12-16T00:51:21;81.55;;;36.53;;
30888;SDS011;51092;50.874;7.024;2022-12-16T00:52:22;79.43;;;39.47;;
30888;SDS011;51092;50.874;7.024;2022-12-16T00:53:25;75.75;;;36.75;;
30888;SDS011;51092;50.874;7.024;2022-12-16T00:54:26;73.50;;;34.97;;
30888;SDS011;51092;50.874;7.024;2022-12-16T00:55:29;69.15;;;35.35;;
30888;SDS011;51092;50.874;7.024;2022-12-16T00:56:32;72.88;;;35.22;;
30888;SDS011;51092;50.874;7.024;2022-12-16T00:57:37;75.80;;;38.30;;
30888;SDS011;51092;50.874;7.024;2022-12-16T00:58:39;71.20;;;35.15;;
30888;SDS011;51092;50.874;7.024;2022-12-16T00:59:42;80.20;;;38.35;;
30888;SDS011;51092;50.874;7.024;2022-12-16T01:00:44;77.53;;;38.45;;
30888;SDS011;51092;50.874;7.024;2022-12-16T01:01:46;89.82;;;39.22;;
30888;SDS011;51092;50.874;7.024;2022-12-16T01:02:48;74.53;;;36.72;;
30888;SDS011;51092;50.874;7.024;2022-12-16T01:03:54;77.47;;;36.85;;
30888;SDS011;51092;50.874;7.024;2022-12-16T01:04:56;69.72;;;34.60;;
30888;SDS011;51092;50.874;7.024;2022-12-16T01:05:58;69.60;;;37.25;;
30888;SDS011;51092;50.874;7.024;2022-12-16T01:07:00;77.07;;;36.67;;
30888;SDS011;51092;50.874;7.024;2022-12-16T01:08:03;68.05;;;35.67;;
30888;SDS011;51092;50.874;7.024;2022-12-16T01:09:04;71.05;;;35.25;;
30888;SDS011;51092;50.874;7.024;2022-12-16T01:10:08;104.72;;;40.92;;
30888;SDS011;51092;50.874;7.024;2022-12-16T01:11:10;69.00;;;34.25;;
30888;SDS011;51092;50.874;7.024;2022-12-16T01:12:13;64.90;;;33.13;;
30888;SDS011;51092;50.874;7.024;2022-12-16T01:13:15;68.38;;;35.55;;
30888;SDS011;51092;50.874;7.024;2022-12-16T01:14:18;75.30;;;36.78;;
30888;SDS011;51092;50.874;7.024;2022-12-16T01:15:20;71.38;;;34.92;;
30888;SDS011;51092;50.874;7.024;2022-12-16T01:16:22;70.78;;;36.88;;
30888;SDS011;51092;50.874;7.024;2022-12-16T01:17:24;68.85;;;33.25;;
30888;SDS011;51092;50.874;7.024;2022-12-16T01:18:26;68.63;;;35.03;;
30888;SDS011;51092;50.874;7.024;2022-12-16T01:19:29;74.43;;;36.47;;
30888;SDS011;51092;50.874;7.024;2022-12-16T01:20:31;69.38;;;33.58;;
30888;SDS011;51092;50.874;7.024;2022-12-16T01:21:34;76.35;;;36.88;;
30888;SDS011;51092;50.874;7.024;2022-12-16T01:22:35;74.75;;;35.13;;
30888;SDS011;51092;50.874;7.024;2022-12-16T01:23:38;75.90;;;34.83;;
30888;SDS011;51092;50.874;7.024;2022-12-16T01:24:39;78.10;;;37.78;;
30888;SDS011;51092;50.874;7.024;2022-12-16T01:25:42;76.93;;;34.90;;
30888;SDS011;51092;50.874;7.024;2022-12-16T01:26:43;85.85;;;35.60;;
30888;SDS011;51092;50.874;7.024;2022-12-16T01:27:46;77.07;;;36.80;;
30888;SDS011;51092;50.874;7.024;2022-12-16T01:28:49;77.25;;;34.85;;
30888;SDS011;51092;50.874;7.024;2022-12-16T01:29:51;77.22;;;36.33;;
30888;SDS011;51092;50.874;7.024;2022-12-16T01:30:56;128.25;;;45.33;;
30888;SDS011;51092;50.874;7.024;2022-12-16T01:32:00;71.15;;;36.08;;
30888;SDS011;51092;50.874;7.024;2022-12-16T01:33:01;112.57;;;43.85;;
30888;SDS011;51092;50.874;7.024;2022-12-16T01:34:04;77.60;;;37.35;;
30888;SDS011;51092;50.874;7.024;2022-12-16T01:35:05;131.85;;;43.47;;
30888;SDS011;51092;50.874;7.024;2022-12-16T01:36:08;85.15;;;40.60;;
30888;SDS011;51092;50.874;7.024;2022-12-16T01:37:11;91.00;;;38.83;;
30888;SDS011;51092;50.874;7.024;2022-12-16T01:38:13;74.43;;;37.35;;
30888;SDS011;51092;50.874;7.024;2022-12-16T01:39:15;86.03;;;41.13;;
30888;SDS011;51092;50.874;7.024;2022-12-16T01:40:18;92.63;;;35.75;;
30888;SDS011;51092;50.874;7.024;2022-12-16T01:41:22;68.03;;;35.67;;
30888;SDS011;51092;50.874;7.024;2022-12-16T01:42:24;72.03;;;35.67;;
30888;SDS011;51092;50.874;7.024;2022-12-16T01:43:30;163.43;;;45.67;;
30888;SDS011;51092;50.874;7.024;2022-12-16T01:44:35;79.05;;;36.25;;
30888;SDS011;51092;50.874;7.024;2022-12-16T01:45:37;78.63;;;36.60;;
30888;SDS011;51092;50.874;7.024;2022-12-16T01:46:39;83.97;;;38.10;;
30888;SDS011;51092;50.874;7.024;2022-12-16T01:47:42;79.55;;;39.35;;
30888;SDS011;51092;50.874;7.024;2022-12-16T01:48:45;80.78;;;36.67;;
30888;SDS011;51092;50.874;7.024;2022-12-16T01:49:51;120.57;;;42.40;;
30888;SDS011;51092;50.874;7.024;2022-12-16T01:51:00;94.82;;;36.08;;
30888;SDS011;51092;50.874;7.024;2022-12-16T01:52:06;82.47;;;37.38;;
30888;SDS011;51092;50.874;7.024;2022-12-16T01:53:12;71.80;;;36.10;;
30888;SDS011;51092;50.874;7.024;2022-12-16T01:54:15;79.90;;;35.20;;
30888;SDS011;51092;50.874;7.024;2022-12-16T01:55:23;73.35;;;34.35;;
30888;SDS011;51092;50.874;7.024;2022-12-16T01:56:29;75.25;;;34.97;;
30888;SDS011;51092;50.874;7.024;2022-12-16T01:57:34;82.25;;;36.78;;
30888;SDS011;51092;50.874;7.024;2022-12-16T01:58:39;71.95;;;35.83;;
30888;SDS011;51092;50.874;7.024;2022-12-16T01:59:44;93.63;;;36.97;;
30888;SDS011;51092;50.874;7.024;2022-12-16T02:00:48;75.07;;;36.17;;
30888;SDS011;51092;50.874;7.024;2022-12-16T02:01:50;128.85;;;41.53;;
30888;SDS011;51092;50.874;7.024;2022-12-16T02:02:53;84.00;;;38.50;;
30888;SDS011;51092;50.874;7.024;2022-12-16T02:03:57;91.63;;;37.67;;
30888;SDS011;51092;50.874;7.024;2022-12-16T02:05:03;88.72;;;36.83;;
30888;SDS011;51092;50.874;7.024;2022-12-16T02:06:20;79.35;;;38.03;;
30888;SDS011;51092;50.874;7.024;2022-12-16T02:07:23;114.25;;;42.47;;
30888;SDS011;51092;50.874;7.024;2022-12-16T02:08:25;92.55;;;42.05;;
30888;SDS011;51092;50.874;7.024;2022-12-16T02:09:27;110.07;;;41.70;;
30888;SDS011;51092;50.874;7.024;2022-12-16T02:10:32;87.70;;;39.83;;
30888;SDS011;51092;50.874;7.024;2022-12-16T02:11:53;110.78;;;41.38;;
30888;SDS011;51092;50.874;7.024;2022-12-16T02:13:13;85.30;;;39.90;;
30888;SDS011;51092;50.874;7.024;2022-12-16T02:14:27;91.32;;;40.08;;
30888;SDS011;51092;50.874;7.024;2022-12-16T02:15:41;79.43;;;37.22;;
30888;SDS011;51092;50.874;7.024;2022-12-16T02:16:52;90.43;;;35.83;;
30888;SDS011;51092;50.874;7.024;2022-12-16T02:18:01;76.82;;;33.00;;
30888;SDS011;51092;50.874;7.024;2022-12-16T02:19:15;112.97;;;37.25;;
30888;SDS011;51092;50.874;7.024;2022-12-16T02:20:44;105.15;;;37.75;;
30888;SDS011;51092;50.874;7.024;2022-12-16T02:22:09;82.00;;;35.90;;
30888;SDS011;51092;50.874;7.024;2022-12-16T02:23:30;71.97;;;33.15;;
30888;SDS011;51092;50.874;7.024;2022-12-16T02:26:55;76.65;;;31.38;;
30888;SDS011;51092;50.874;7.024;2022-12-16T02:28:22;71.65;;;34.70;;
30888;SDS011;51092;50.874;7.024;2022-12-16T02:29:52;72.15;;;32.63;;
30888;SDS011;51092;50.874;7.024;2022-12-16T02:31:08;79.35;;;33.38;;
30888;SDS011;51092;50.874;7.024;2022-12-16T02:32:21;66.57;;;33.53;;
30888;SDS011;51092;50.874;7.024;2022-12-16T02:33:32;69.88;;;33.20;;
30888;SDS011;51092;50.874;7.024;2022-12-16T02:34:47;67.22;;;31.65;;
30888;SDS011;51092;50.874;7.024;2022-12-16T02:35:55;63.70;;;26.90;;
30888;SDS011;51092;50.874;7.024;2022-12-16T02:37:06;96.82;;;33.80;;
30888;SDS011;51092;50.874;7.024;2022-12-16T02:38:16;122.50;;;40.58;;
30888;SDS011;51092;50.874;7.024;2022-12-16T02:39:24;225.65;;;45.42;;
30888;SDS011;51092;50.874;7.024;2022-12-16T02:40:31;77.78;;;34.67;;
30888;SDS011;51092;50.874;7.024;2022-12-16T02:41:40;83.85;;;35.95;;
30888;SDS011;51092;50.874;7.024;2022-12-16T02:42:49;81.03;;;35.55;;
30888;SDS011;51092;50.874;7.024;2022-12-16T02:43:55;117.65;;;40.10;;
30888;SDS011;51092;50.874;7.024;2022-12-16T02:45:03;69.95;;;33.35;;
30888;SDS011;51092;50.874;7.024;2022-12-16T02:46:11;71.85;;;32.90;;
30888;SDS011;51092;50.874;7.024;2022-12-16T02:47:14;68.60;;;35.58;;
30888;SDS011;51092;50.874;7.024;2022-12-16T02:48:15;77.07;;;34.08;;
30888;SDS011;51092;50.874;7.024;2022-12-16T02:50:46;67.88;;;32.20;;
30888;SDS011;51092;50.874;7.024;2022-12-16T02:51:50;95.82;;;34.90;;
30888;SDS011;51092;50.874;7.024;2022-12-16T02:52:51;89.07;;;36.05;;
30888;SDS011;51092;50.874;7.024;2022-12-16T02:53:56;66.85;;;34.33;;
30888;SDS011;51092;50.874;7.024;2022-12-16T02:54:57;70.88;;;34.00;;
30888;SDS011;51092;50.874;7.024;2022-12-16T02:56:03;76.70;;;36.38;;
30888;SDS011;51092;50.874;7.024;2022-12-16T02:57:21;84.78;;;33.53;;
30888;SDS011;51092;50.874;7.024;2022-12-16T02:58:36;154.45;;;42.45;;
30888;SDS011;51092;50.874;7.024;2022-12-16T02:59:46;104.82;;;36.75;;
30888;SDS011;51092;50.874;7.024;2022-12-16T03:00:59;79.70;;;34.30;;
30888;SDS011;51092;50.874;7.024;2022-12-16T03:02:11;135.27;;;40.30;;
30888;SDS011;51092;50.874;7.024;2022-12-16T03:03:19;84.80;;;34.83;;
30888;SDS011;51092;50.874;7.024;2022-12-16T03:04:29;78.20;;;34.10;;
30888;SDS011;51092;50.874;7.024;2022-12-16T03:05:37;84.97;;;35.70;;
30888;SDS011;51092;50.874;7.024;2022-12-16T03:06:46;92.22;;;36.35;;
30888;SDS011;51092;50.874;7.024;2022-12-16T03:07:49;89.82;;;37.10;;
30888;SDS011;51092;50.874;7.024;2022-12-16T03:08:55;106.72;;;34.22;;
30888;SDS011;51092;50.874;7.024;2022-12-16T03:09:58;75.07;;;36.95;;
30888;SDS011;51092;50.874;7.024;2022-12-16T03:11:05;336.98;;;52.05;;
30888;SDS011;51092;50.874;7.024;2022-12-16T03:12:09;122.75;;;40.03;;
30888;SDS011;51092;50.874;7.024;2022-12-16T03:13:13;98.38;;;36.63;;
30888;SDS011;51092;50.874;7.024;2022-12-16T03:14:18;97.70;;;39.75;;
30888;SDS011;51092;50.874;7.024;2022-12-16T03:15:22;81.80;;;38.25;;
30888;SDS011;51092;50.874;7.024;2022-12-16T03:16:30;108.13;;;40.50;;
30888;SDS011;51092;50.874;7.024;2022-12-16T03:17:35;97.40;;;41.28;;
30888;SDS011;51092;50.874;7.024;2022-12-16T03:18:39;159.40;;;48.13;;
30888;SDS011;51092;50.874;7.024;2022-12-16T03:19:44;78.43;;;36.00;;
30888;SDS011;51092;50.874;7.024;2022-12-16T03:20:51;83.18;;;36.75;;
30888;SDS011;51092;50.874;7.024;2022-12-16T03:21:58;81.10;;;38.63;;
30888;SDS011;51092;50.874;7.024;2022-12-16T03:23:04;91.97;;;39.88;;
30888;SDS011;51092;50.874;7.024;2022-12-16T03:24:11;92.53;;;39.45;;
30888;SDS011;51092;50.874;7.024;2022-12-16T03:25:13;94.15;;;40.70;;
30888;SDS011;51092;50.874;7.024;2022-12-16T03:26:18;82.72;;;39.78;;
30888;SDS011;51092;50.874;7.024;2022-12-16T03:27:23;90.63;;;41.10;;
30888;SDS011;51092;50.874;7.024;2022-12-16T03:28:37;81.95;;;37.33;;
30888;SDS011;51092;50.874;7.024;2022-12-16T03:30:50;87.85;;;38.90;;
30888;SDS011;51092;50.874;7.024;2022-12-16T03:32:02;75.35;;;35.58;;
30888;SDS011;51092;50.874;7.024;2022-12-16T03:33:09;72.88;;;35.85;;
30888;SDS011;51092;50.874;7.024;2022-12-16T03:34:18;85.15;;;39.03;;
30888;SDS011;51092;50.874;7.024;2022-12-16T03:35:30;78.78;;;36.97;;
30888;SDS011;51092;50.874;7.024;2022-12-16T03:36:37;75.15;;;34.58;;
30888;SDS011;51092;50.874;7.024;2022-12-16T03:37:41;75.35;;;36.03;;
30888;SDS011;51092;50.874;7.024;2022-12-16T03:38:46;106.45;;;42.03;;
30888;SDS011;51092;50.874;7.024;2022-12-16T03:39:49;113.30;;;45.78;;
30888;SDS011;51092;50.874;7.024;2022-12-16T03:40:54;108.22;;;44.00;;
30888;SDS011;51092;50.874;7.024;2022-12-16T03:41:57;114.18;;;43.65;;
30888;SDS011;51092;50.874;7.024;2022-12-16T03:43:01;144.30;;;48.50;;
30888;SDS011;51092;50.874;7.024;2022-12-16T03:44:04;166.15;;;46.80;;
30888;SDS011;51092;50.874;7.024;2022-12-16T03:45:10;160.45;;;49.65;;
30888;SDS011;51092;50.874;7.024;2022-12-16T03:46:16;111.13;;;46.92;;
30888;SDS011;51092;50.874;7.024;2022-12-16T03:47:19;119.80;;;45.55;;
30888;SDS011;51092;50.874;7.024;2022-12-16T03:48:23;202.90;;;53.05;;
30888;SDS011;51092;50.874;7.024;2022-12-16T03:49:27;205.52;;;55.42;;
30888;SDS011;51092;50.874;7.024;2022-12-16T03:50:29;148.43;;;49.28;;
30888;SDS011;51092;50.874;7.024;2022-12-16T03:51:34;154.25;;;51.00;;
30888;SDS011;51092;50.874;7.024;2022-12-16T03:52:35;233.18;;;56.35;;
30888;SDS011;51092;50.874;7.024;2022-12-16T03:53:38;202.70;;;53.28;;
30888;SDS011;51092;50.874;7.024;2022-12-16T03:54:39;201.52;;;54.72;;
30888;SDS011;51092;50.874;7.024;2022-12-16T03:55:42;158.00;;;52.10;;
30888;SDS011;51092;50.874;7.024;2022-12-16T03:56:43;191.23;;;54.25;;
30888;SDS011;51092;50.874;7.024;2022-12-16T03:57:47;151.13;;;51.60;;
30888;SDS011;51092;50.874;7.024;2022-12-16T03:58:48;104.85;;;47.03;;
30888;SDS011;51092;50.874;7.024;2022-12-16T03:59:51;112.55;;;46.63;;
30888;SDS011;51092;50.874;7.024;2022-12-16T04:00:53;108.97;;;48.00;;
30888;SDS011;51092;50.874;7.024;2022-12-16T04:01:56;105.65;;;46.33;;
30888;SDS011;51092;50.874;7.024;2022-12-16T04:02:57;99.63;;;44.30;;
30888;SDS011;51092;50.874;7.024;2022-12-16T04:04:01;97.93;;;43.05;;
30888;SDS011;51092;50.874;7.024;2022-12-16T04:05:03;109.10;;;45.10;;
30888;SDS011;51092;50.874;7.024;2022-12-16T04:06:06;101.95;;;44.38;;
30888;SDS011;51092;50.874;7.024;2022-12-16T04:07:07;111.65;;;46.47;;
30888;SDS011;51092;50.874;7.024;2022-12-16T04:08:24;97.57;;;41.13;;
30888;SDS011;51092;50.874;7.024;2022-12-16T04:09:27;126.82;;;47.05;;
30888;SDS011;51092;50.874;7.024;2022-12-16T04:10:28;133.38;;;51.47;;
30888;SDS011;51092;50.874;7.024;2022-12-16T04:11:47;106.45;;;44.88;;
30888;SDS011;51092;50.874;7.024;2022-12-16T04:13:08;148.93;;;54.03;;
30888;SDS011;51092;50.874;7.024;2022-12-16T04:14:28;113.40;;;46.03;;
30888;SDS011;51092;50.874;7.024;2022-12-16T04:15:48;166.68;;;50.90;;
30888;SDS011;51092;50.874;7.024;2022-12-16T04:17:08;151.80;;;46.13;;
30888;SDS011;51092;50.874;7.024;2022-12-16T04:18:30;189.25;;;50.10;;
30888;SDS011;51092;50.874;7.024;2022-12-16T04:19:52;152.93;;;46.75;;
30888;SDS011;51092;50.874;7.024;2022-12-16T04:21:12;142.20;;;46.90;;
30888;SDS011;51092;50.874;7.024;2022-12-16T04:22:32;187.27;;;48.42;;
30888;SDS011;51092;50.874;7.024;2022-12-16T04:23:55;188.27;;;49.38;;
30888;SDS011;51092;50.874;7.024;2022-12-16T04:25:17;176.88;;;49.30;;
30888;SDS011;51092;50.874;7.024;2022-12-16T04:26:22;175.60;;;53.50;;
30888;SDS011;51092;50.874;7.024;2022-12-16T04:27:24;222.63;;;54.08;;
30888;SDS011;51092;50.874;7.024;2022-12-16T04:28:25;350.25;;;66.90;;
30888;SDS011;51092;50.874;7.024;2022-12-16T04:29:28;269.25;;;61.10;;
30888;SDS011;51092;50.874;7.024;2022-12-16T04:30:30;453.83;;;69.07;;
30888;SDS011;51092;50.874;7.024;2022-12-16T04:31:34;276.85;;;57.67;;
30888;SDS011;51092;50.874;7.024;2022-12-16T04:32:37;300.10;;;62.95;;
30888;SDS011;51092;50.874;7.024;2022-12-16T04:33:57;408.35;;;66.07;;
30888;SDS011;51092;50.874;7.024;2022-12-16T04:35:17;521.00;;;71.70;;
30888;SDS011;51092;50.874;7.024;2022-12-16T04:36:37;286.30;;;59.17;;
30888;SDS011;51092;50.874;7.024;2022-12-16T04:37:57;430.57;;;68.33;;
30888;SDS011;51092;50.874;7.024;2022-12-16T04:39:17;187.30;;;53.70;;
30888;SDS011;51092;50.874;7.024;2022-12-16T04:40:37;189.18;;;54.95;;
30888;SDS011;51092;50.874;7.024;2022-12-16T04:41:57;232.50;;;52.05;;
30888;SDS011;51092;50.874;7.024;2022-12-16T04:43:17;305.67;;;54.20;;
30888;SDS011;51092;50.874;7.024;2022-12-16T04:44:37;323.83;;;58.10;;
30888;SDS011;51092;50.874;7.024;2022-12-16T04:45:57;152.93;;;43.03;;
30888;SDS011;51092;50.874;7.024;2022-12-16T04:47:16;436.20;;;62.40;;
30888;SDS011;51092;50.874;7.024;2022-12-16T04:48:36;211.40;;;54.33;;
30888;SDS011;51092;50.874;7.024;2022-12-16T04:49:56;286.42;;;55.47;;
30888;SDS011;51092;50.874;7.024;2022-12-16T04:51:17;247.85;;;56.08;;
30888;SDS011;51092;50.874;7.024;2022-12-16T04:53:56;267.15;;;53.35;;
30888;SDS011;51092;50.874;7.024;2022-12-16T04:55:16;253.90;;;53.75;;
30888;SDS011;51092;50.874;7.024;2022-12-16T04:56:36;114.35;;;45.80;;
30888;SDS011;51092;50.874;7.024;2022-12-16T04:58:02;164.18;;;50.85;;
30888;SDS011;51092;50.874;7.024;2022-12-16T04:59:22;125.65;;;51.33;;
30888;SDS011;51092;50.874;7.024;2022-12-16T05:00:57;199.80;;;51.78;;
30888;SDS011;51092;50.874;7.024;2022-12-16T05:02:17;248.15;;;59.03;;
30888;SDS011;51092;50.874;7.024;2022-12-16T05:03:38;169.00;;;51.42;;
30888;SDS011;51092;50.874;7.024;2022-12-16T05:04:58;136.20;;;49.63;;
30888;SDS011;51092;50.874;7.024;2022-12-16T05:06:20;108.38;;;46.80;;
30888;SDS011;51092;50.874;7.024;2022-12-16T05:07:40;117.03;;;48.85;;
30888;SDS011;51092;50.874;7.024;2022-12-16T05:09:00;185.73;;;50.15;;
30888;SDS011;51092;50.874;7.024;2022-12-16T05:10:21;121.97;;;46.13;;
30888;SDS011;51092;50.874;7.024;2022-12-16T05:11:41;128.17;;;49.17;;
30888;SDS011;51092;50.874;7.024;2022-12-16T05:13:01;176.38;;;52.13;;
30888;SDS011;51092;50.874;7.024;2022-12-16T05:14:22;173.32;;;51.40;;
30888;SDS011;51092;50.874;7.024;2022-12-16T05:15:41;109.45;;;44.13;;
30888;SDS011;51092;50.874;7.024;2022-12-16T05:17:01;103.70;;;44.03;;
30888;SDS011;51092;50.874;7.024;2022-12-16T05:18:21;108.22;;;44.88;;
30888;SDS011;51092;50.874;7.024;2022-12-16T05:19:40;153.52;;;45.72;;
30888;SDS011;51092;50.874;7.024;2022-12-16T05:21:01;107.05;;;43.25;;
30888;SDS011;51092;50.874;7.024;2022-12-16T05:22:23;210.57;;;47.80;;
30888;SDS011;51092;50.874;7.024;2022-12-16T05:23:43;101.82;;;41.30;;
30888;SDS011;51092;50.874;7.024;2022-12-16T05:25:03;101.03;;;41.87;;
30888;SDS011;51092;50.874;7.024;2022-12-16T05:26:24;91.53;;;40.05;;
30888;SDS011;51092;50.874;7.024;2022-12-16T05:27:44;102.18;;;41.47;;
30888;SDS011;51092;50.874;7.024;2022-12-16T05:29:08;89.55;;;40.97;;
30888;SDS011;51092;50.874;7.024;2022-12-16T05:30:28;99.88;;;42.97;;
30888;SDS011;51092;50.874;7.024;2022-12-16T05:31:47;103.47;;;39.88;;
30888;SDS011;51092;50.874;7.024;2022-12-16T05:33:10;123.00;;;42.75;;
30888;SDS011;51092;50.874;7.024;2022-12-16T05:34:35;124.43;;;39.53;;
30888;SDS011;51092;50.874;7.024;2022-12-16T05:35:55;100.88;;;39.40;;
30888;SDS011;51092;50.874;7.024;2022-12-16T05:37:15;108.90;;;40.00;;
30888;SDS011;51092;50.874;7.024;2022-12-16T05:38:36;112.50;;;40.97;;
30888;SDS011;51092;50.874;7.024;2022-12-16T05:39:56;112.05;;;42.42;;
30888;SDS011;51092;50.874;7.024;2022-12-16T05:41:16;118.40;;;40.65;;
30888;SDS011;51092;50.874;7.024;2022-12-16T05:42:36;94.55;;;39.70;;
30888;SDS011;51092;50.874;7.024;2022-12-16T05:43:56;91.05;;;39.45;;
30888;SDS011;51092;50.874;7.024;2022-12-16T05:45:15;99.05;;;41.10;;
30888;SDS011;51092;50.874;7.024;2022-12-16T05:46:35;98.10;;;40.22;;
30888;SDS011;51092;50.874;7.024;2022-12-16T05:47:55;80.75;;;29.75;;
30888;SDS011;51092;50.874;7.024;2022-12-16T05:49:16;106.15;;;41.13;;
30888;SDS011;51092;50.874;7.024;2022-12-16T05:50:35;101.00;;;41.33;;
30888;SDS011;51092;50.874;7.024;2022-12-16T05:51:55;102.07;;;40.58;;
30888;SDS011;51092;50.874;7.024;2022-12-16T05:53:14;93.65;;;36.92;;
30888;SDS011;51092;50.874;7.024;2022-12-16T05:54:35;99.50;;;40.47;;
30888;SDS011;51092;50.874;7.024;2022-12-16T05:55:55;104.40;;;40.60;;
30888;SDS011;51092;50.874;7.024;2022-12-16T05:57:15;95.97;;;36.03;;
30888;SDS011;51092;50.874;7.024;2022-12-16T05:58:34;94.57;;;38.10;;
30888;SDS011;51092;50.874;7.024;2022-12-16T05:59:54;91.70;;;37.85;;
30888;SDS011;51092;50.874;7.024;2022-12-16T06:01:14;89.60;;;36.15;;
30888;SDS011;51092;50.874;7.024;2022-12-16T06:02:34;100.20;;;37.70;;
30888;SDS011;51092;50.874;7.024;2022-12-16T06:03:54;130.03;;;43.03;;
30888;SDS011;51092;50.874;7.024;2022-12-16T06:05:14;108.30;;;41.58;;
30888;SDS011;51092;50.874;7.024;2022-12-16T06:06:34;156.55;;;44.92;;
30888;SDS011;51092;50.874;7.024;2022-12-16T06:07:54;111.45;;;42.13;;
30888;SDS011;51092;50.874;7.024;2022-12-16T06:09:13;101.32;;;40.05;;
30888;SDS011;51092;50.874;7.024;2022-12-16T06:10:34;122.40;;;42.15;;
30888;SDS011;51092;50.874;7.024;2022-12-16T06:11:56;93.30;;;36.60;;
30888;SDS011;51092;50.874;7.024;2022-12-16T06:13:16;100.07;;;40.83;;
30888;SDS011;51092;50.874;7.024;2022-12-16T06:14:36;98.43;;;37.80;;
30888;SDS011;51092;50.874;7.024;2022-12-16T06:15:56;99.05;;;37.92;;
30888;SDS011;51092;50.874;7.024;2022-12-16T06:17:16;97.03;;;38.08;;
30888;SDS011;51092;50.874;7.024;2022-12-16T06:18:36;93.90;;;39.05;;
30888;SDS011;51092;50.874;7.024;2022-12-16T06:19:55;90.55;;;37.80;;
30888;SDS011;51092;50.874;7.024;2022-12-16T06:21:15;95.05;;;36.25;;
30888;SDS011;51092;50.874;7.024;2022-12-16T06:22:35;66.30;;;26.88;;
30888;SDS011;51092;50.874;7.024;2022-12-16T06:23:55;110.97;;;40.40;;
30888;SDS011;51092;50.874;7.024;2022-12-16T06:25:15;113.93;;;42.25;;
30888;SDS011;51092;50.874;7.024;2022-12-16T06:26:36;98.93;;;39.88;;
30888;SDS011;51092;50.874;7.024;2022-12-16T06:27:55;104.70;;;37.20;;
30888;SDS011;51092;50.874;7.024;2022-12-16T06:29:15;97.50;;;37.53;;
30888;SDS011;51092;50.874;7.024;2022-12-16T06:30:35;149.23;;;44.72;;
30888;SDS011;51092;50.874;7.024;2022-12-16T06:31:56;107.13;;;43.13;;
30888;SDS011;51092;50.874;7.024;2022-12-16T06:33:16;115.18;;;42.15;;
30888;SDS011;51092;50.874;7.024;2022-12-16T06:34:35;104.65;;;39.13;;
30888;SDS011;51092;50.874;7.024;2022-12-16T06:35:54;115.18;;;38.28;;
30888;SDS011;51092;50.874;7.024;2022-12-16T06:37:14;97.47;;;40.35;;
30888;SDS011;51092;50.874;7.024;2022-12-16T06:38:33;100.30;;;37.65;;
30888;SDS011;51092;50.874;7.024;2022-12-16T06:39:53;101.60;;;39.45;;
30888;SDS011;51092;50.874;7.024;2022-12-16T06:41:12;113.25;;;43.15;;
30888;SDS011;51092;50.874;7.024;2022-12-16T06:42:33;97.07;;;39.25;;
30888;SDS011;51092;50.874;7.024;2022-12-16T06:43:53;94.55;;;39.67;;
30888;SDS011;51092;50.874;7.024;2022-12-16T06:45:13;123.03;;;37.50;;
30888;SDS011;51092;50.874;7.024;2022-12-16T06:46:33;113.38;;;40.33;;
30888;SDS011;51092;50.874;7.024;2022-12-16T06:47:53;100.72;;;40.20;;
30888;SDS011;51092;50.874;7.024;2022-12-16T06:49:13;109.03;;;37.70;;
30888;SDS011;51092;50.874;7.024;2022-12-16T06:50:33;87.13;;;39.50;;
30888;SDS011;51092;50.874;7.024;2022-12-16T06:51:53;91.25;;;39.67;;
30888;SDS011;51092;50.874;7.024;2022-12-16T06:53:24;115.72;;;39.38;;